Time;durP1;ratioP1;P1;durP2;ratioP2;P2;SDS_P1;SDS_P2;PMS_P1;PMS_P2;Temp;Humidity;BMP_temperature;BMP_pressure;BME280_temperature;BME280_humidity;BME280_pressure;Samples;Min_cycle;Max_cycle;Signal;HPM_P1;HPM_P2
2023/04/02 00:01:50;;;;;;;2.40;1.13;;;5.60;1.00;;;;;;6125102;23;20444;-90
2023/04/02 00:04:37;;;;;;;1.90;1.00;;;5.60;1.00;;;;;;6123946;23;20472;-91
2023/04/02 00:07:30;;;;;;;2.25;1.10;;;5.60;1.00;;;;;;6125112;23;20447;-91
2023/04/02 00:10:30;;;;;;;1.70;1.35;;;5.60;1.00;;;;;;6126252;23;20041;-91
2023/04/02 00:13:24;;;;;;;1.58;1.20;;;5.70;1.00;;;;;;6128909;23;20033;-92
2023/04/02 00:16:15;;;;;;;1.17;1.08;;;5.70;1.00;;;;;;6126810;23;20487;-90
2023/04/02 00:19:07;;;;;;;1.30;1.20;;;5.70;1.00;;;;;;6128099;23;20057;-91
2023/04/02 00:21:56;;;;;;;1.20;1.15;;;5.70;99.90;;;;;;6127499;23;20238;-93
2023/04/02 00:24:44;;;;;;;2.58;1.17;;;5.70;99.90;;;;;;6128644;23;20163;-90
2023/04/02 00:27:31;;;;;;;1.27;1.00;;;5.70;99.90;;;;;;6125781;23;20049;-90
2023/04/02 00:30:19;;;;;;;1.85;1.33;;;5.70;99.90;;;;;;6137721;23;20026;-91
2023/04/02 00:33:14;;;;;;;1.20;1.10;;;5.80;99.90;;;;;;6138516;23;20026;-90
2023/04/02 00:36:06;;;;;;;0.90;0.90;;;5.80;99.90;;;;;;6138433;23;20022;-92
2023/04/02 00:39:01;;;;;;;1.17;1.15;;;5.80;99.90;;;;;;6139331;23;20018;-91
2023/04/02 00:42:03;;;;;;;0.95;0.93;;;5.80;1.00;;;;;;6145162;23;20087;-86
2023/04/02 00:44:53;;;;;;;;;;;5.80;1.00;;;;;;6145953;23;20021;-86
2023/04/02 00:47:42;;;;;;;2.85;1.10;;;5.80;1.00;;;;;;6144845;23;19905;-92
2023/04/02 00:50:35;;;;;;;1.35;1.00;;;5.80;1.00;;;;;;6140558;23;20046;-92
2023/04/02 00:53:30;;;;;;;1.17;0.90;;;5.80;99.90;;;;;;6137630;23;20033;-93
2023/04/02 00:56:26;;;;;;;1.10;1.00;;;5.70;1.00;;;;;;6141086;23;20026;-90
2023/04/02 00:59:28;;;;;;;1.60;0.80;;;5.60;32.00;;;;;;6139005;23;20091;-91
2023/04/02 01:02:31;;;;;;;1.63;1.40;;;5.60;99.90;;;;;;6136944;23;20030;-91
2023/04/02 01:05:21;;;;;;;;;;;5.60;99.90;;;;;;6140115;23;20041;-91
2023/04/02 01:08:30;;;;;;;1.48;1.38;;;5.70;99.90;;;;;;6136524;23;19917;-92
2023/04/02 01:15:36;;;;;;;2.53;0.95;;;5.70;40.10;;;;;;6130523;23;20029;-93
2023/04/02 01:18:39;;;;;;;1.10;1.10;;;5.70;91.80;;;;;;6131574;23;20412;-92
2023/04/02 01:22:05;;;;;;;0.88;0.88;;;5.60;99.90;;;;;;6135810;23;20090;-93
2023/04/02 01:24:57;;;;;;;1.10;1.00;;;5.50;99.90;;;;;;6147814;23;20021;-89
2023/04/02 01:27:55;;;;;;;3.15;1.30;;;5.50;1.00;;;;;;6143405;23;20025;-91
2023/04/02 01:30:46;;;;;;;1.25;1.02;;;5.50;1.00;;;;;;6126659;23;20022;-91
2023/04/02 01:33:34;;;;;;;1.77;1.02;;;5.60;1.00;;;;;;6124348;23;20337;-93
2023/04/02 01:36:36;;;;;;;1.08;1.05;;;5.60;99.90;;;;;;6122808;23;20030;-93
2023/04/02 01:39:23;;;;;;;1.98;1.20;;;5.60;99.90;;;;;;6122220;23;20067;-91
2023/04/02 01:42:38;;;;;;;1.25;1.17;;;5.60;99.90;;;;;;6122616;23;20060;-92
2023/04/02 01:45:25;;;;;;;1.33;1.20;;;5.60;99.90;;;;;;6122205;23;20054;-91
2023/04/02 01:48:28;;;;;;;2.05;1.20;;;5.70;99.90;;;;;;6127330;23;20117;-91
2023/04/02 01:51:24;;;;;;;;;;;5.70;99.90;;;;;;6125596;23;20336;-92
2023/04/02 01:54:15;;;;;;;2.05;0.95;;;5.70;99.90;;;;;;6126874;23;20304;-92
2023/04/02 01:57:06;;;;;;;1.38;1.27;;;5.70;1.00;;;;;;6124126;23;20434;-92
2023/04/02 01:59:57;;;;;;;2.20;1.48;;;5.70;1.00;;;;;;6122826;23;20033;-91
2023/04/02 02:02:50;;;;;;;3.35;1.30;;;5.80;1.00;;;;;;6124143;23;20033;-91
2023/04/02 02:05:37;;;;;;;2.08;1.50;;;5.70;1.00;;;;;;6124989;23;20424;-91
2023/04/02 02:08:33;;;;;;;1.92;1.73;;;5.80;1.00;;;;;;6122271;23;20037;-92
2023/04/02 02:11:25;;;;;;;3.28;1.80;;;5.80;1.00;;;;;;6122144;23;20056;-92
2023/04/02 02:14:23;;;;;;;4.95;2.25;;;5.80;1.00;;;;;;6122573;23;20128;-91
2023/04/02 02:17:17;;;;;;;4.25;1.95;;;5.90;1.00;;;;;;6125081;23;20056;-93
2023/04/02 02:20:11;;;;;;;3.65;1.77;;;5.90;1.00;;;;;;6125179;23;20334;-93
2023/04/02 02:23:03;;;;;;;2.80;1.77;;;5.90;1.00;;;;;;6123299;23;20326;-92
2023/04/02 02:25:50;;;;;;;3.95;2.00;;;5.90;1.00;;;;;;6121766;23;20030;-92
2023/04/02 02:28:41;;;;;;;4.93;1.90;;;5.90;1.00;;;;;;6125632;23;20022;-92
2023/04/02 02:31:33;;;;;;;3.28;2.20;;;6.00;1.00;;;;;;6123301;23;20026;-91
2023/04/02 02:34:30;;;;;;;4.28;2.40;;;6.00;17.90;;;;;;6122749;23;20022;-91
2023/04/02 02:37:23;;;;;;;4.05;2.08;;;5.90;11.50;;;;;;6126535;23;20072;-92
2023/04/02 02:40:19;;;;;;;4.53;2.20;;;6.00;16.30;;;;;;6123244;23;20097;-91
2023/04/02 02:43:13;;;;;;;5.05;2.05;;;6.00;28.20;;;;;;6123875;23;20504;-93
2023/04/02 02:46:15;;;;;;;5.25;2.47;;;6.00;39.90;;;;;;6123504;23;20018;-91
2023/04/02 02:49:04;;;;;;;3.40;2.00;;;6.00;55.80;;;;;;6123433;23;20060;-92
2023/04/02 02:52:13;;;;;;;6.55;2.65;;;6.00;36.40;;;;;;6123007;23;20030;-91
2023/04/02 02:55:19;;;;;;;6.50;2.28;;;6.00;70.20;;;;;;6124781;23;20083;-89
2023/04/02 02:58:13;;;;;;;5.47;2.50;;;6.00;54.70;;;;;;6125921;23;20034;-92
2023/04/02 03:01:01;;;;;;;3.70;2.00;;;6.00;42.80;;;;;;6127624;23;20425;-92
2023/04/02 03:03:55;;;;;;;6.82;2.10;;;6.00;36.80;;;;;;6124487;23;20058;-91
2023/04/02 03:06:44;;;;;;;3.35;1.60;;;6.00;2.50;;;;;;6125105;23;20041;-91
2023/04/02 03:09:46;;;;;;;3.60;2.22;;;6.00;1.00;;;;;;6123197;23;20030;-92
2023/04/02 03:12:38;;;;;;;2.90;2.20;;;6.00;1.00;;;;;;6127682;23;20029;-92
2023/04/02 03:15:34;;;;;;;4.85;2.05;;;6.00;1.00;;;;;;6143054;23;20021;-89
2023/04/02 03:18:56;;;;;;;2.45;1.80;;;6.00;1.00;;;;;;6146364;23;20045;-89
2023/04/02 03:21:52;;;;;;;3.72;1.98;;;6.00;1.00;;;;;;6126683;23;20022;-92
2023/04/02 03:25:00;;;;;;;5.35;2.10;;;6.00;1.00;;;;;;6136712;23;20033;-91
2023/04/02 03:27:52;;;;;;;4.88;1.98;;;6.00;1.00;;;;;;6122996;23;20425;-91
2023/04/02 03:30:58;;;;;;;2.53;1.70;;;6.00;1.00;;;;;;6123351;23;20120;-91
2023/04/02 03:33:58;;;;;;;3.17;2.00;;;6.00;1.00;;;;;;6124601;23;20117;-92
2023/04/02 03:37:15;;;;;;;3.20;2.00;;;6.00;1.00;;;;;;6126907;23;20105;-92
2023/04/02 03:40:16;;;;;;;3.10;2.03;;;6.00;1.00;;;;;;6104018;23;20087;-91
2023/04/02 03:43:15;;;;;;;2.80;1.83;;;6.00;2.30;;;;;;6124958;23;20022;-90
2023/04/02 03:46:26;;;;;;;4.10;2.72;;;6.00;1.00;;;;;;6123572;23;20110;-90
2023/04/02 03:49:45;;;;;;;2.55;1.83;;;6.00;15.20;;;;;;6123623;23;20030;-92
2023/04/02 03:52:35;;;;;;;4.45;2.10;;;6.00;27.20;;;;;;6124340;23;20026;-93
2023/04/02 03:55:27;;;;;;;3.88;2.58;;;6.00;57.00;;;;;;6125565;23;20021;-93
2023/04/02 03:58:29;;;;;;;8.77;2.20;;;5.90;26.30;;;;;;6126576;23;20087;-92
2023/04/02 04:01:26;;;;;;;2.90;2.50;;;6.00;46.70;;;;;;6124544;23;20021;-92
2023/04/02 04:04:17;;;;;;;2.70;2.22;;;5.90;54.20;;;;;;6122477;23;20036;-93
2023/04/02 04:07:10;;;;;;;7.30;2.20;;;5.90;63.00;;;;;;6124886;23;20033;-92
2023/04/02 04:09:58;;;;;;;;;;;5.90;92.30;;;;;;6126793;23;20021;-93
2023/04/02 04:13:13;;;;;;;3.95;2.47;;;5.90;95.00;;;;;;6134878;23;19948;-93
2023/04/02 04:16:46;;;;;;;4.47;2.60;;;5.90;99.90;;;;;;6122361;23;20064;-91
2023/04/02 04:19:53;;;;;;;5.78;2.45;;;5.90;99.90;;;;;;6122821;23;20299;-91
2023/04/02 04:22:41;;;;;;;5.70;3.20;;;5.80;99.90;;;;;;6124844;23;20031;-91
2023/04/02 04:25:32;;;;;;;3.15;2.55;;;5.80;99.90;;;;;;6125043;23;20052;-93
2023/04/02 04:29:08;;;;;;;5.13;2.50;;;5.80;99.90;;;;;;6124035;23;20033;-92
2023/04/02 04:32:25;;;;;;;4.70;2.67;;;5.80;99.90;;;;;;6132641;23;20022;-93
2023/04/02 04:35:32;;;;;;;3.45;2.30;;;5.80;99.90;;;;;;6123962;23;20025;-92
2023/04/02 04:38:43;;;;;;;4.45;2.72;;;5.80;99.90;;;;;;6124941;23;20037;-93
2023/04/02 04:41:37;;;;;;;4.38;2.78;;;5.80;99.90;;;;;;6125050;23;20026;-92
2023/04/02 04:44:45;;;;;;;5.07;3.20;;;5.80;99.90;;;;;;6130294;23;20037;-90
2023/04/02 04:47:37;;;;;;;4.30;2.92;;;5.70;99.90;;;;;;6133532;23;20030;-92
2023/04/02 04:50:29;;;;;;;6.65;3.50;;;5.70;99.90;;;;;;6131846;23;20025;-92
2023/04/02 04:53:20;;;;;;;4.95;3.45;;;5.70;99.90;;;;;;6122290;23;20655;-92
2023/04/02 04:56:08;;;;;;;5.47;3.30;;;5.70;99.90;;;;;;6125436;23;20053;-93
2023/04/02 04:59:26;;;;;;;5.72;3.38;;;5.70;99.90;;;;;;6125137;23;20503;-93
2023/04/02 05:02:38;;;;;;;7.43;3.38;;;5.60;99.90;;;;;;6129121;23;20026;-93
2023/04/02 05:05:28;;;;;;;;;;;5.60;99.90;;;;;;6123855;23;20026;-90
2023/04/02 05:08:29;;;;;;;5.60;3.42;;;5.70;99.90;;;;;;6131936;23;19917;-91
2023/04/02 05:11:41;;;;;;;13.60;4.53;;;5.60;99.90;;;;;;6142659;23;20065;-88
2023/04/02 05:14:49;;;;;;;7.55;3.97;;;5.70;99.90;;;;;;6144575;23;20029;-93
2023/04/02 05:17:52;;;;;;;12.95;4.40;;;5.70;99.90;;;;;;6124684;23;20101;-93
2023/04/02 05:20:53;;;;;;;4.93;4.03;;;5.70;99.90;;;;;;6122994;23;20030;-93
2023/04/02 05:24:01;;;;;;;8.07;3.70;;;5.70;99.90;;;;;;6123044;23;20030;-93
2023/04/02 05:27:00;;;;;;;9.30;3.92;;;5.70;99.90;;;;;;6126365;23;20026;-91
2023/04/02 05:30:06;;;;;;;5.95;3.25;;;5.70;99.90;;;;;;6123668;23;20037;-90
2023/04/02 05:33:35;;;;;;;7.68;3.60;;;5.70;99.90;;;;;;6124660;23;20101;-93
2023/04/02 05:36:28;;;;;;;9.57;3.47;;;5.80;99.90;;;;;;6124515;23;20425;-92
2023/04/02 05:39:34;;;;;;;;;;;;;;;;;;;;;
2023/04/02 05:42:32;;;;;;;6.90;3.25;;;5.80;99.90;;;;;;6122301;23;20097;-92
2023/04/02 05:45:40;;;;;;;7.60;3.15;;;5.80;99.90;;;;;;6120388;23;20038;-91
2023/04/02 05:48:43;;;;;;;8.63;3.03;;;5.90;99.90;;;;;;6128798;23;20108;-93
2023/04/02 05:51:47;;;;;;;4.65;2.80;;;5.90;99.90;;;;;;6123340;23;20101;-92
2023/04/02 05:55:01;;;;;;;4.93;2.97;;;5.90;99.90;;;;;;6122594;23;20022;-93
2023/04/02 05:58:00;;;;;;;6.72;3.40;;;6.00;99.90;;;;;;6121485;23;20053;-93
2023/04/02 06:01:06;;;;;;;4.00;3.15;;;6.00;99.90;;;;;;6123917;23;20033;-92
2023/04/02 06:04:30;;;;;;;4.43;2.92;;;6.10;99.90;;;;;;6127241;23;20030;-92
2023/04/02 06:07:27;;;;;;;4.75;3.10;;;6.10;99.90;;;;;;6125671;23;20438;-91
2023/04/02 06:10:22;;;;;;;7.80;3.30;;;6.10;99.90;;;;;;6125411;23;20030;-90
2023/04/02 06:13:18;;;;;;;5.30;2.88;;;6.10;99.90;;;;;;6128030;23;20041;-91
2023/04/02 06:16:06;;;;;;;6.38;3.03;;;6.20;99.90;;;;;;6131392;23;20029;-88
2023/04/02 06:18:56;;;;;;;4.35;3.08;;;6.20;99.90;;;;;;6125854;23;20030;-92
2023/04/02 06:21:48;;;;;;;3.92;2.20;;;6.30;99.90;;;;;;6123627;23;20040;-90
2023/04/02 06:24:39;;;;;;;6.75;2.95;;;6.30;99.90;;;;;;6126843;23;20030;-90
2023/04/02 06:27:29;;;;;;;4.32;2.80;;;6.30;99.90;;;;;;6123630;23;20036;-90
2023/04/02 06:30:30;;;;;;;2.78;2.50;;;6.40;99.90;;;;;;6130170;23;20022;-92
2023/04/02 06:33:17;;;;;;;5.28;2.85;;;6.40;99.90;;;;;;6130307;23;20037;-91
2023/04/02 06:36:06;;;;;;;7.28;2.17;;;6.40;99.90;;;;;;6132851;23;20030;-91
2023/04/02 06:39:05;;;;;;;4.00;2.50;;;6.40;99.90;;;;;;6129581;23;20030;-90
2023/04/02 06:42:04;;;;;;;2.67;2.22;;;6.50;99.90;;;;;;6127400;23;20581;-89
2023/04/02 06:44:53;;;;;;;5.25;2.20;;;6.50;78.10;;;;;;6126907;23;20026;-89
2023/04/02 06:47:45;;;;;;;5.20;2.53;;;6.60;16.90;;;;;;6126058;23;20053;-90
2023/04/02 06:51:15;;;;;;;2.75;2.00;;;6.70;1.00;;;;;;6125762;23;20022;-93
2023/04/02 06:54:07;;;;;;;5.47;2.15;;;6.70;99.90;;;;;;6122785;23;20428;-90
2023/04/02 06:56:57;;;;;;;4.90;2.25;;;6.80;99.90;;;;;;6126871;23;20412;-89
2023/04/02 06:59:45;;;;;;;4.90;2.15;;;6.90;48.90;;;;;;6138533;23;20036;-84
2023/04/02 07:02:46;;;;;;;2.95;2.08;;;6.90;99.90;;;;;;6140056;23;20030;-87
2023/04/02 07:05:33;;;;;;;3.90;1.98;;;6.90;99.90;;;;;;6127699;23;20025;-91
2023/04/02 07:08:22;;;;;;;3.92;2.30;;;7.00;99.90;;;;;;6124202;23;20057;-88
2023/04/02 07:11:14;;;;;;;2.45;1.90;;;7.00;99.90;;;;;;6123577;23;20045;-92
2023/04/02 07:14:01;;;;;;;2.38;1.30;;;7.00;99.90;;;;;;6123237;23;20044;-90
2023/04/02 07:16:51;;;;;;;2.28;1.83;;;7.00;99.90;;;;;;6121121;23;20212;-90
2023/04/02 07:19:39;;;;;;;4.65;2.30;;;7.10;99.90;;;;;;6121905;23;20030;-90
2023/04/02 07:22:26;;;;;;;5.30;2.50;;;7.20;99.90;;;;;;6126377;23;20038;-88
2023/04/02 07:25:13;;;;;;;5.72;1.85;;;7.20;1.00;;;;;;6132311;23;20101;-89
2023/04/02 07:28:00;;;;;;;3.22;2.10;;;7.30;99.90;;;;;;6124745;23;20030;-89
2023/04/02 07:30:49;;;;;;;4.30;2.17;;;7.30;99.90;;;;;;6121302;23;20101;-89
2023/04/02 07:33:37;;;;;;;8.38;4.15;;;7.40;99.90;;;;;;6120538;23;20032;-91
2023/04/02 07:36:29;;;;;;;4.80;2.38;;;7.50;99.90;;;;;;6126271;23;20026;-89
2023/04/02 07:39:16;;;;;;;2.20;1.85;;;7.60;1.00;;;;;;6120563;23;20053;-89
2023/04/02 07:42:06;;;;;;;2.17;1.58;;;7.60;99.90;;;;;;6122597;23;20026;-88
2023/04/02 07:44:55;;;;;;;2.55;1.88;;;7.60;1.00;;;;;;6121077;23;20037;-88
2023/04/02 07:47:42;;;;;;;5.20;2.03;;;7.70;1.00;;;;;;6122416;23;20030;-89
2023/04/02 07:50:29;;;;;;;2.58;2.20;;;7.80;99.90;;;;;;6122177;23;20038;-92
2023/04/02 07:53:32;;;;;;;1.63;1.48;;;8.00;99.90;;;;;;6123854;23;20025;-90
2023/04/02 08:01:11;;;;;;;6.05;2.72;;;8.10;1.00;;;;;;6121476;23;20026;-89
2023/04/02 08:04:29;;;;;;;5.60;2.47;;;8.20;99.90;;;;;;6065021;23;20027;-92
2023/04/02 08:07:17;;;;;;;4.32;2.67;;;8.40;99.90;;;;;;6070907;23;20038;-91
2023/04/02 08:10:09;;;;;;;5.22;2.75;;;8.60;88.40;;;;;;6060620;23;20041;-90
2023/04/02 08:12:56;;;;;;;1.55;1.45;;;8.50;1.00;;;;;;6069155;23;20066;-85
2023/04/02 08:15:44;;;;;;;1.65;1.55;;;8.50;99.90;;;;;;6086329;23;20138;-87
2023/04/02 08:18:33;;;;;;;3.47;1.70;;;8.50;99.90;;;;;;6080650;23;20022;-90
2023/04/02 08:21:22;;;;;;;3.08;1.50;;;8.50;99.90;;;;;;6083774;23;20014;-87
2023/04/02 08:24:18;;;;;;;3.28;1.45;;;8.40;99.90;;;;;;6086951;23;20031;-89
2023/04/02 08:27:07;;;;;;;4.95;1.40;;;8.50;99.90;;;;;;6081673;23;20064;-87
2023/04/02 08:29:56;;;;;;;1.83;1.27;;;8.50;99.90;;;;;;6115811;23;20072;-88
2023/04/02 08:40:57;;;;;;;2.05;1.10;;;8.30;1.00;;;;;;6109214;23;20045;-91
2023/04/02 08:48:41;;;;;;;1.42;1.33;;;8.30;1.00;;;;;;6130800;23;20012;-90
2023/04/02 08:58:17;;;;;;;;;;;;;;;;;;;;;
2023/04/02 09:02:06;;;;;;;2.72;1.38;;;8.40;99.90;;;;;;6143038;23;20022;-92
2023/04/02 09:13:40;;;;;;;1.08;0.98;;;8.60;99.90;;;;;;6098625;23;20053;-92
2023/04/02 09:21:58;;;;;;;2.85;1.10;;;8.70;99.90;;;;;;6136570;23;20105;-92
2023/04/02 09:41:21;;;;;;;2.58;1.20;;;9.80;95.10;;;;;;6124348;23;20097;-91
2023/04/02 09:44:22;;;;;;;2.38;1.50;;;9.90;1.00;;;;;;6124823;23;20057;-90
2023/04/02 09:47:25;;;;;;;2.37;1.30;;;9.60;1.00;;;;;;6123841;23;20022;-88
2023/04/02 09:50:20;;;;;;;2.90;1.35;;;9.90;1.00;;;;;;6122911;23;20022;-89
2023/04/02 09:53:28;;;;;;;2.15;1.20;;;10.00;1.00;;;;;;6122229;23;20033;-89
2023/04/02 09:56:25;;;;;;;1.33;1.23;;;10.20;99.90;;;;;;6127048;23;20032;-91
2023/04/02 11:43:36;;;;;;;1.20;0.63;;;11.20;1.00;;;;;;6049743;23;20047;-91
2023/04/02 11:59:36;;;;;;;2.22;0.90;;;11.10;17.90;;;;;;6114915;23;20025;-92
2023/04/02 12:03:03;;;;;;;;;;;;;;;;;;;;;
2023/04/02 12:44:51;;;;;;;0.73;0.52;;;14.80;99.90;;;;;;6143444;22;20018;-92
2023/04/02 12:48:01;;;;;;;0.45;0.35;;;14.70;99.90;;;;;;6061703;23;20231;-89
2023/04/02 12:51:19;;;;;;;1.02;0.55;;;14.70;99.90;;;;;;6092023;23;20036;-90
2023/04/02 12:55:02;;;;;;;0.50;0.50;;;13.90;99.90;;;;;;6084692;23;20022;-90
2023/04/02 12:58:49;;;;;;;0.50;0.50;;;13.40;99.90;;;;;;6057814;23;20018;-92
2023/04/02 13:02:25;;;;;;;0.60;0.60;;;13.20;99.90;;;;;;6060242;23;20098;-92
2023/04/02 13:42:58;;;;;;;0.73;0.60;;;13.90;99.90;;;;;;6124388;23;20022;-93
2023/04/02 13:57:41;;;;;;;0.70;0.60;;;11.60;99.90;;;;;;6164072;23;20017;-93
2023/04/02 14:33:56;;;;;;;2.58;1.40;;;10.70;1.00;;;;;;6125717;23;20059;-91
2023/04/02 14:37:08;;;;;;;1.77;1.27;;;10.70;1.00;;;;;;6126754;23;20124;-91
2023/04/02 14:40:56;;;;;;;1.63;1.50;;;10.60;1.00;;;;;;6127243;23;20030;-92
2023/04/02 14:56:44;;;;;;;;;;;;;;;;;;;;;
2023/04/02 15:00:26;;;;;;;2.22;1.67;;;9.80;99.90;;;;;;6171670;23;20014;-92
2023/04/02 15:08:47;;;;;;;2.10;2.00;;;9.60;99.90;;;;;;6149344;23;20073;-87
2023/04/02 15:16:12;;;;;;;2.00;1.80;;;9.20;99.90;;;;;;6131573;23;20013;-88
2023/04/02 15:19:00;;;;;;;2.58;1.95;;;9.10;99.90;;;;;;6126723;23;20037;-87
2023/04/02 15:22:39;;;;;;;3.05;2.08;;;9.00;1.00;;;;;;6128957;23;20034;-91
2023/04/02 15:32:41;;;;;;;5.13;2.70;;;8.80;72.30;;;;;;6128152;23;20026;-93
2023/04/02 15:40:19;;;;;;;;;;;;;;;;;;;;;
2023/04/02 15:44:02;;;;;;;3.65;2.40;;;8.60;99.90;;;;;;6129973;23;20030;-93
2023/04/02 15:51:46;;;;;;;3.88;2.75;;;8.50;99.90;;;;;;6128816;23;20396;-90
2023/04/02 15:55:00;;;;;;;3.50;3.20;;;8.40;1.00;;;;;;6132389;23;20080;-91
2023/04/02 15:58:09;;;;;;;3.03;2.75;;;8.40;99.90;;;;;;6139476;23;20026;-87
2023/04/02 16:10:23;;;;;;;4.57;3.17;;;8.10;99.90;;;;;;6139803;23;20017;-89
2023/04/02 16:13:28;;;;;;;3.70;3.40;;;8.00;99.90;;;;;;6138764;23;20030;-90
2023/04/02 16:16:33;;;;;;;3.50;3.20;;;7.90;99.90;;;;;;6118597;23;20006;-87
2023/04/02 16:19:58;;;;;;;3.67;3.10;;;7.90;1.00;;;;;;6121059;23;20018;-89
2023/04/02 16:23:10;;;;;;;3.95;3.65;;;7.80;1.00;;;;;;6145918;23;20052;-88
2023/04/02 16:26:25;;;;;;;6.63;4.75;;;7.70;1.00;;;;;;6145908;23;20018;-89
2023/04/02 16:29:43;;;;;;;3.38;3.08;;;7.70;1.00;;;;;;6145480;23;20026;-90
2023/04/02 16:33:28;;;;;;;3.55;3.20;;;7.60;99.90;;;;;;6146219;23;20041;-86
2023/04/02 16:36:47;;;;;;;3.92;3.00;;;7.60;99.90;;;;;;6139687;23;20026;-90
2023/04/02 16:40:36;;;;;;;5.25;3.42;;;7.50;99.90;;;;;;6138846;23;20022;-89
2023/04/02 16:43:46;;;;;;;3.03;2.72;;;7.50;99.90;;;;;;6143473;23;20018;-90
2023/04/02 16:46:58;;;;;;;5.35;3.35;;;7.40;1.00;;;;;;6143214;23;20040;-89
2023/04/02 16:50:33;;;;;;;4.18;3.67;;;7.30;99.90;;;;;;6143771;23;20109;-91
2023/04/02 16:57:49;;;;;;;5.85;4.95;;;7.20;99.90;;;;;;6137540;23;20016;-92
2023/04/02 17:01:01;;;;;;;6.20;5.07;;;7.10;1.00;;;;;;6139843;23;20045;-89
2023/04/02 17:08:56;;;;;;;9.70;8.70;;;6.90;99.90;;;;;;6046607;23;20007;-91
2023/04/02 17:12:47;;;;;;;;;;;;;;;;;;;;;
2023/04/02 17:16:45;;;;;;;10.25;8.90;;;6.70;99.90;;;;;;6081463;23;20107;-91
2023/04/02 17:19:58;;;;;;;10.57;9.43;;;6.70;99.90;;;;;;6046754;23;20023;-94
2023/04/02 17:23:44;;;;;;;10.40;9.40;;;6.60;99.90;;;;;;6038299;23;20131;-92
2023/04/02 17:36:10;;;;;;;7.93;7.03;;;6.40;99.90;;;;;;6044617;23;20085;-92
2023/04/02 17:39:51;;;;;;;8.73;6.82;;;6.30;99.90;;;;;;6037867;23;20023;-92
2023/04/02 17:47:41;;;;;;;7.82;6.90;;;6.20;99.90;;;;;;6141878;23;20069;-92
2023/04/02 17:51:22;;;;;;;7.20;6.50;;;6.20;99.90;;;;;;6133132;23;20103;-92
2023/04/02 17:59:29;;;;;;;7.10;6.40;;;6.10;99.90;;;;;;6131756;23;20045;-91
2023/04/02 18:03:17;;;;;;;7.13;6.22;;;6.00;12.20;;;;;;6111668;23;20030;-89
2023/04/02 18:06:12;;;;;;;6.20;5.60;;;6.00;1.00;;;;;;6125278;23;20081;-90
2023/04/02 18:09:46;;;;;;;5.80;5.20;;;6.00;1.00;;;;;;6127379;23;20054;-93
2023/04/02 18:12:55;;;;;;;6.15;5.05;;;5.90;1.00;;;;;;6125393;23;20041;-92
2023/04/02 18:16:20;;;;;;;5.45;4.93;;;5.80;99.90;;;;;;6125108;23;20026;-96
2023/04/02 18:19:43;;;;;;;;;;;;;;;;;;;;;
2023/04/02 18:22:45;;;;;;;5.85;5.00;;;5.70;99.90;;;;;;6125591;23;20368;-92
2023/04/02 18:26:08;;;;;;;9.30;5.22;;;5.70;32.50;;;;;;6125170;23;20026;-91
2023/04/02 18:29:31;;;;;;;9.32;6.85;;;5.70;1.00;;;;;;6125014;23;20022;-92
2023/04/02 18:36:49;;;;;;;7.97;5.82;;;5.60;99.90;;;;;;6125118;23;20041;-92
2023/04/02 18:40:03;;;;;;;6.38;5.78;;;5.60;99.90;;;;;;6123755;23;20144;-87
2023/04/02 18:43:10;;;;;;;;;;;5.50;1.00;;;;;;6124110;23;20290;-88
2023/04/02 18:46:12;;;;;;;6.95;6.25;;;5.50;99.90;;;;;;6122770;23;20006;-91
2023/04/02 18:49:37;;;;;;;8.75;6.30;;;5.40;99.90;;;;;;6122521;23;20025;-90
2023/04/02 18:52:29;;;;;;;7.22;6.50;;;5.30;99.90;;;;;;6145042;23;20036;-89
2023/04/02 18:55:20;;;;;;;11.15;6.53;;;5.30;99.90;;;;;;6132635;23;20056;-92
2023/04/02 18:58:21;;;;;;;8.02;7.15;;;5.30;99.90;;;;;;6129171;23;20029;-89
2023/04/02 19:01:13;;;;;;;8.65;7.57;;;5.20;99.90;;;;;;6124915;23;20087;-89
2023/04/02 19:04:09;;;;;;;12.35;7.50;;;5.10;1.00;;;;;;6123322;23;20026;-88
2023/04/02 19:07:15;;;;;;;9.23;7.97;;;5.10;1.00;;;;;;6125794;23;20034;-89
2023/04/02 19:10:18;;;;;;;10.23;8.13;;;5.00;1.00;;;;;;6121625;23;20057;-91
2023/04/02 19:13:17;;;;;;;11.10;9.10;;;5.00;1.00;;;;;;6121737;23;20053;-91
2023/04/02 19:16:16;;;;;;;10.65;8.50;;;5.00;99.90;;;;;;6121862;23;20052;-89
2023/04/02 19:19:18;;;;;;;10.85;8.00;;;4.90;99.90;;;;;;6123929;23;20417;-90
2023/04/02 19:22:43;;;;;;;11.25;7.90;;;4.80;99.90;;;;;;6122145;23;20436;-88
2023/04/02 19:25:33;;;;;;;10.02;8.13;;;4.80;72.10;;;;;;6122282;23;20034;-92
2023/04/02 19:28:33;;;;;;;9.68;7.93;;;4.70;1.00;;;;;;6122898;23;20061;-89
2023/04/02 19:31:49;;;;;;;13.18;9.10;;;4.70;1.00;;;;;;6124420;23;20045;-92
2023/04/02 19:34:41;;;;;;;10.43;8.60;;;4.60;1.00;;;;;;6128574;23;20026;-93
2023/04/02 19:37:51;;;;;;;12.52;7.88;;;4.50;1.00;;;;;;6123515;23;20095;-90
2023/04/02 19:40:38;;;;;;;13.60;9.48;;;4.40;99.90;;;;;;6124578;23;20044;-88
2023/04/02 19:43:26;;;;;;;13.45;8.77;;;4.40;99.90;;;;;;6124701;23;20100;-88
2023/04/02 19:46:15;;;;;;;14.57;9.57;;;4.40;99.90;;;;;;6125013;23;20034;-87
2023/04/02 19:49:18;;;;;;;13.93;9.40;;;4.30;94.80;;;;;;6125924;23;20030;-90
2023/04/02 19:52:07;;;;;;;12.00;10.00;;;4.20;99.90;;;;;;6124292;23;20336;-92
2023/04/02 19:54:55;;;;;;;14.07;9.57;;;4.30;99.90;;;;;;6127167;23;20171;-92
2023/04/02 19:57:43;;;;;;;13.82;9.13;;;4.20;72.50;;;;;;6123977;23;20026;-91
2023/04/02 20:00:31;;;;;;;11.38;8.40;;;4.10;1.00;;;;;;6124586;23;20029;-90
2023/04/02 20:03:22;;;;;;;11.35;8.07;;;4.00;99.90;;;;;;6124452;23;20022;-88
2023/04/02 20:06:10;;;;;;;11.02;7.90;;;4.00;99.90;;;;;;6122757;23;20049;-89
2023/04/02 20:08:59;;;;;;;8.75;7.05;;;3.90;72.60;;;;;;6123926;23;20033;-88
2023/04/02 20:11:47;;;;;;;9.32;7.15;;;3.80;1.00;;;;;;6123522;23;20029;-90
2023/04/02 20:14:37;;;;;;;10.35;6.57;;;3.70;1.00;;;;;;6125302;23;20025;-91
2023/04/02 20:17:27;;;;;;;11.77;6.72;;;3.70;1.00;;;;;;6121820;23;20026;-91
2023/04/02 20:20:15;;;;;;;18.48;8.50;;;3.70;1.00;;;;;;6125002;23;20022;-93
2023/04/02 20:23:03;;;;;;;10.73;7.85;;;3.60;1.00;;;;;;6124105;23;20044;-91
2023/04/02 20:25:58;;;;;;;9.18;6.88;;;3.60;1.00;;;;;;6123008;23;20479;-92
2023/04/02 20:28:45;;;;;;;10.45;6.07;;;3.60;99.90;;;;;;6122622;23;20123;-90
2023/04/02 20:31:35;;;;;;;7.95;6.07;;;3.60;98.30;;;;;;6125346;23;20026;-89
2023/04/02 20:34:23;;;;;;;8.07;6.28;;;3.50;1.00;;;;;;6123458;23;20376;-92
2023/04/02 20:37:11;;;;;;;7.85;6.03;;;3.50;99.90;;;;;;6121946;23;20362;-90
2023/04/02 20:40:01;;;;;;;8.00;5.75;;;3.40;99.90;;;;;;6124069;23;20045;-91
2023/04/02 20:42:51;;;;;;;10.05;6.22;;;3.40;99.90;;;;;;6124387;23;20145;-91
2023/04/02 20:45:39;;;;;;;9.13;6.50;;;3.40;99.90;;;;;;6124170;23;20044;-87
2023/04/02 20:48:29;;;;;;;7.10;6.22;;;3.30;99.90;;;;;;6122861;23;20341;-91
2023/04/02 20:51:20;;;;;;;9.65;5.82;;;3.30;99.90;;;;;;6121572;23;20029;-87
2023/04/02 20:54:07;;;;;;;8.60;5.85;;;3.30;69.60;;;;;;6127826;23;20484;-87
2023/04/02 20:56:55;;;;;;;12.15;6.28;;;3.20;98.80;;;;;;6127549;23;20026;-87
2023/04/02 20:59:42;;;;;;;7.63;5.93;;;3.20;99.90;;;;;;6106636;23;20419;-89
2023/04/02 21:02:30;;;;;;;10.13;5.75;;;3.20;1.00;;;;;;6132055;23;20026;-88
2023/04/02 21:05:19;;;;;;;12.65;6.43;;;3.20;1.00;;;;;;6132976;23;20033;-89
2023/04/02 21:08:07;;;;;;;8.93;5.93;;;3.10;1.00;;;;;;6132174;23;20049;-89
2023/04/02 21:11:07;;;;;;;11.63;6.47;;;3.10;99.90;;;;;;6125144;23;20107;-87
2023/04/02 21:13:57;;;;;;;9.27;5.28;;;3.00;99.90;;;;;;6125565;23;20030;-89
2023/04/02 21:16:44;;;;;;;9.73;5.97;;;3.00;99.90;;;;;;6126080;23;20026;-86
2023/04/02 21:19:32;;;;;;;8.52;5.50;;;3.00;99.90;;;;;;6125072;23;20408;-89
2023/04/02 21:22:19;;;;;;;7.57;4.80;;;3.00;50.40;;;;;;6127627;23;20033;-90
2023/04/02 21:25:07;;;;;;;8.77;5.53;;;3.00;1.00;;;;;;6133186;23;20105;-85
2023/04/02 21:27:55;;;;;;;7.43;4.93;;;3.00;1.00;;;;;;6137164;23;20049;-88
2023/04/02 21:30:42;;;;;;;11.35;5.47;;;3.00;1.00;;;;;;6138158;23;20030;-89
2023/04/02 21:33:30;;;;;;;8.98;5.60;;;3.00;1.00;;;;;;6136956;23;20037;-89
2023/04/02 21:36:20;;;;;;;13.48;5.32;;;3.00;1.00;;;;;;6145550;23;20041;-82
2023/04/02 21:39:16;;;;;;;6.97;5.30;;;3.00;99.90;;;;;;6141391;23;20026;-85
2023/04/02 21:42:03;;;;;;;8.95;5.53;;;2.90;99.90;;;;;;6136805;23;20022;-88
2023/04/02 21:44:52;;;;;;;8.50;5.32;;;2.90;99.90;;;;;;6124360;23;20026;-89
2023/04/02 21:47:39;;;;;;;6.88;4.80;;;2.90;99.90;;;;;;6126054;23;20033;-90
2023/04/02 21:50:27;;;;;;;6.53;4.95;;;2.90;99.90;;;;;;6123114;23;20034;-89
2023/04/02 21:53:14;;;;;;;8.32;5.60;;;2.90;99.90;;;;;;6121789;23;20026;-88
2023/04/02 21:56:03;;;;;;;6.88;5.13;;;2.90;99.90;;;;;;6122678;23;20022;-91
2023/04/02 21:58:55;;;;;;;10.68;4.90;;;2.90;99.90;;;;;;6132255;23;20058;-91
2023/04/02 22:01:51;;;;;;;6.05;5.07;;;2.90;99.90;;;;;;6124716;23;20030;-90
2023/04/02 22:04:41;;;;;;;6.75;5.32;;;2.90;99.90;;;;;;6122834;23;20418;-86
2023/04/02 22:07:31;;;;;;;7.20;5.03;;;2.90;99.90;;;;;;6123143;23;20030;-91
2023/04/02 22:10:20;;;;;;;11.55;5.38;;;2.90;99.90;;;;;;6122532;23;20030;-89
2023/04/02 22:13:07;;;;;;;9.25;5.15;;;2.90;99.90;;;;;;6129255;23;20132;-86
2023/04/02 22:16:05;;;;;;;6.25;4.93;;;2.90;99.90;;;;;;6131407;23;20021;-87
2023/04/02 22:18:54;;;;;;;9.90;5.43;;;2.90;99.90;;;;;;6129705;23;20033;-89
2023/04/02 22:21:45;;;;;;;7.57;5.40;;;2.90;99.90;;;;;;6122041;23;20057;-90